createdAt,value
2023-03-06T00:00:57.864Z,99030.75
2023-03-06T00:06:00.369Z,98913.19
2023-03-06T00:11:02.159Z,98989.28
2023-03-06T00:16:05.013Z,99029.84
2023-03-06T00:21:08.559Z,99125.75
2023-03-06T00:26:10.638Z,99118.94
2023-03-06T00:31:12.305Z,98923.97
2023-03-06T00:36:14.096Z,98938.88
2023-03-06T00:41:15.756Z,98987.84
2023-03-06T00:46:17.567Z,99049.03
2023-03-06T00:51:19.816Z,98843.91
2023-03-06T00:56:22.512Z,98888.91
2023-03-06T01:01:24.208Z,98931.91
2023-03-06T01:06:25.874Z,98911.09
2023-03-06T01:11:27.680Z,98862.06
2023-03-06T01:16:29.330Z,98925.47
2023-03-06T01:21:31.097Z,98894.47
2023-03-06T01:26:33.614Z,98906.97
2023-03-06T01:31:35.370Z,98893.41
2023-03-06T01:36:37.077Z,98883.38
2023-03-06T01:41:38.779Z,98983.34
2023-03-06T01:46:44.147Z,98977.50
2023-03-06T01:51:48.949Z,98937.63
2023-03-06T01:56:54.899Z,98861.63
2023-03-06T02:01:58.612Z,98821.56
2023-03-06T02:07:04.920Z,98868.59
2023-03-06T02:12:10.976Z,98802.13
2023-03-06T02:17:15.295Z,98923.59
2023-03-06T02:22:16.985Z,98822.25
2023-03-06T02:27:19.552Z,98838.03
2023-03-06T02:32:21.300Z,98822.91
2023-03-06T02:37:24.747Z,98936.16
2023-03-06T02:42:28.917Z,98826.31
2023-03-06T02:47:30.817Z,98869.16
2023-03-06T02:52:32.508Z,98816.31
2023-03-06T02:57:34.184Z,98783.09
2023-03-06T03:02:36.072Z,98814.16
2023-03-06T03:07:37.646Z,98821.13
2023-03-06T03:12:39.571Z,98803.06
2023-03-06T03:17:42.301Z,98732.84
2023-03-06T03:22:48.349Z,98765.06
2023-03-06T03:27:50.084Z,98801.44
2023-03-06T03:32:51.794Z,98764.41
2023-03-06T03:37:54.782Z,98808.16
2023-03-06T03:42:56.418Z,98751.47
2023-03-06T03:47:58.063Z,98749.81
2023-03-06T03:52:59.905Z,98748.31
2023-03-06T03:58:01.585Z,98811.66
2023-03-06T04:03:03.308Z,98764.56
2023-03-06T04:08:05.637Z,98779.44
2023-03-06T04:13:09.919Z,98824.94
2023-03-06T04:18:11.844Z,98766.25
2023-03-06T04:23:14.263Z,98730.63
2023-03-06T04:28:15.993Z,98734.91
2023-03-06T04:33:17.823Z,98796.50
2023-03-06T04:38:19.493Z,98734.88
2023-03-06T04:43:21.280Z,98794.03
2023-03-06T04:48:23.012Z,98796.81
2023-03-06T04:53:24.701Z,98773.69
2023-03-06T04:58:26.548Z,98777.66
2023-03-06T05:03:28.167Z,98803.28
2023-03-06T05:08:30.234Z,98804.38
2023-03-06T05:13:31.865Z,98786.22
2023-03-06T05:18:36.034Z,98757.47
2023-03-06T05:23:38.679Z,98754.84
2023-03-06T05:28:40.721Z,98793.16
2023-03-06T05:33:42.388Z,98744.88
2023-03-06T05:38:44.040Z,98802.25
2023-03-06T05:43:45.803Z,98755.47
2023-03-06T05:48:47.802Z,98811.16
2023-03-06T05:53:49.590Z,98799.31
2023-03-06T05:58:51.683Z,98856.94
2023-03-06T06:03:53.419Z,98805.75
2023-03-06T06:08:55.150Z,98750.19
2023-03-06T06:13:56.865Z,98803.84
2023-03-06T06:18:59.077Z,98800.06
2023-03-06T06:24:00.727Z,98741.41
2023-03-06T06:29:04.395Z,98795.41
2023-03-06T06:34:07.291Z,98851.88
2023-03-06T06:39:10.869Z,98815.50
2023-03-06T06:44:14.612Z,98789.19
2023-03-06T06:49:16.869Z,98839.09
2023-03-06T06:54:19.982Z,98837.94
2023-03-06T06:59:23.811Z,98823.31
2023-03-06T07:04:25.620Z,98768.06
2023-03-06T07:09:27.386Z,98782.75
2023-03-06T07:14:29.008Z,98797.59
2023-03-06T07:19:30.711Z,98776.81
2023-03-06T07:24:32.453Z,98869.53
2023-03-06T07:29:34.712Z,98753.50
2023-03-06T07:34:36.385Z,98818.69
2023-03-06T07:39:38.074Z,98836.28
2023-03-06T07:44:40.273Z,98802.00
2023-03-06T07:49:41.970Z,98902.91
2023-03-06T07:54:43.693Z,98848.41
2023-03-06T07:59:45.299Z,98915.56
2023-03-06T08:04:53.026Z,98790.84
2023-03-06T08:09:54.732Z,98831.22
2023-03-06T08:14:56.361Z,98758.44
2023-03-06T08:19:58.133Z,98836.34
2023-03-06T08:24:59.817Z,98806.75
2023-03-06T08:30:01.591Z,98865.91
2023-03-06T08:35:05.050Z,98806.81
2023-03-06T08:40:07.425Z,98782.22
2023-03-06T08:45:09.726Z,98797.81
2023-03-06T08:50:11.974Z,98787.16
2023-03-06T08:55:15.125Z,98809.72
2023-03-06T09:00:17.620Z,98832.28
2023-03-06T09:05:19.398Z,98824.38
2023-03-06T09:10:24.531Z,98735.13
2023-03-06T09:15:26.500Z,98793.88
2023-03-06T09:20:28.171Z,98799.16
2023-03-06T09:25:29.823Z,98768.88
2023-03-06T09:30:31.576Z,98830.16
2023-03-06T09:35:33.320Z,98751.66
2023-03-06T09:40:57.813Z,98824.78
2023-03-06T09:45:59.684Z,98780.63
2023-03-06T09:51:12.591Z,98815.00
2023-03-06T09:56:20.959Z,98786.41
2023-03-06T10:01:30.322Z,98804.28
2023-03-06T10:06:48.589Z,98833.03
2023-03-06T10:11:58.847Z,98817.78
2023-03-06T10:17:01.898Z,98780.94
2023-03-06T10:22:24.467Z,98820.16
2023-03-06T10:27:43.088Z,98817.78
2023-03-06T10:32:51.380Z,98779.97
2023-03-06T10:38:01.012Z,98782.59
2023-03-06T10:43:11.339Z,98808.53
2023-03-06T10:48:19.783Z,98764.56
2023-03-06T10:53:31.358Z,98731.13
2023-03-06T10:58:33.156Z,98806.44
2023-03-06T11:06:35.183Z,98820.75
2023-03-06T11:11:38.143Z,98843.63
2023-03-06T11:16:39.822Z,98836.59
2023-03-06T11:21:41.416Z,98793.75
2023-03-06T11:26:51.668Z,98824.59
2023-03-06T11:32:12.093Z,98837.72
2023-03-06T11:37:44.351Z,98770.88
2023-03-06T11:42:54.027Z,98830.19
2023-03-06T11:48:16.610Z,98802.13
2023-03-06T11:53:37.798Z,98840.56
2023-03-06T11:58:56.277Z,98801.28
2023-03-06T12:04:22.617Z,98800.44
2023-03-06T12:09:32.516Z,98840.34
2023-03-06T12:14:34.025Z,98832.53
2023-03-06T12:20:07.321Z,98808.16
2023-03-06T12:25:42.519Z,98797.97
2023-03-06T12:31:09.208Z,98764.75
2023-03-06T12:36:24.283Z,98775.34
2023-03-06T12:41:38.002Z,98765.56
2023-03-06T12:46:56.433Z,98817.28
2023-03-06T12:51:59.882Z,98781.94
2023-03-06T12:57:01.777Z,98745.50
2023-03-06T13:02:37.247Z,98774.66
2023-03-06T13:08:12.970Z,98819.00
2023-03-06T13:13:32.498Z,98829.56
2023-03-06T13:18:33.999Z,98793.16
2023-03-06T13:23:35.754Z,98812.53
2023-03-06T13:28:40.575Z,98850.41
2023-03-06T13:33:45.197Z,98788.75
2023-03-06T13:38:49.697Z,98726.38
2023-03-06T13:43:56.750Z,98761.91
2023-03-06T13:49:13.181Z,98728.69
2023-03-06T13:54:45.976Z,98743.88
2023-03-06T14:00:03.057Z,98758.75
2023-03-06T14:05:15.745Z,98784.00
2023-03-06T14:10:24.652Z,98738.03
2023-03-06T14:15:54.511Z,98755.94
2023-03-06T14:20:56.398Z,98751.38
2023-03-06T14:26:23.440Z,98741.03
2023-03-06T14:31:27.290Z,98698.94
2023-03-06T14:36:51.025Z,98670.06
2023-03-06T14:42:04.356Z,98707.69
2023-03-06T14:47:28.902Z,98707.19
2023-03-06T14:52:30.705Z,98691.97
2023-03-06T14:57:32.370Z,98675.19
2023-03-06T15:05:33.476Z,98737.53
2023-03-06T15:10:38.773Z,98714.31
2023-03-06T15:15:40.315Z,98668.31
2023-03-06T15:20:44.768Z,98761.94
2023-03-06T15:25:57.720Z,98680.38
2023-03-06T15:31:16.329Z,98700.00
2023-03-06T15:36:29.560Z,98657.41
2023-03-06T15:41:38.533Z,98743.88
2023-03-06T15:46:40.561Z,98666.97
2023-03-06T15:51:42.257Z,98713.72
2023-03-06T15:56:46.199Z,98737.72
2023-03-06T16:01:48.435Z,98709.47
2023-03-06T16:07:04.906Z,98700.41
2023-03-06T18:08:56.263Z,98752.16
2023-03-06T18:13:58.122Z,98752.50
2023-03-06T18:18:59.765Z,98752.31
2023-03-06T18:24:01.499Z,98826.53
2023-03-06T18:29:04.965Z,98757.97
2023-03-06T18:34:14.593Z,98761.91
2023-03-06T18:39:16.555Z,98766.91
2023-03-06T18:44:19.044Z,98774.19
2023-03-06T18:49:21.146Z,98799.28
2023-03-06T18:54:24.466Z,98809.47
2023-03-06T18:59:26.450Z,98831.44
2023-03-06T19:04:28.293Z,98811.66
2023-03-06T19:09:30.042Z,98774.19
2023-03-06T19:14:31.924Z,98817.91
2023-03-06T19:19:33.579Z,98820.78
2023-03-06T19:24:35.250Z,98812.84
2023-03-06T19:29:38.613Z,98803.84
2023-03-06T19:34:40.321Z,98816.56
2023-03-06T19:39:43.182Z,98832.44
2023-03-06T19:44:45.200Z,98831.41
2023-03-06T19:49:46.991Z,98795.75
2023-03-06T19:54:48.825Z,98808.50
2023-03-06T19:59:53.991Z,98785.06
2023-03-06T20:04:55.777Z,98774.50
2023-03-06T20:10:00.734Z,98795.22
2023-03-06T20:15:02.751Z,98830.97
2023-03-06T20:20:04.649Z,98783.84
2023-03-06T20:25:06.573Z,98805.09
2023-03-06T20:30:09.097Z,98824.06
2023-03-06T20:35:10.839Z,98770.22
2023-03-06T20:40:12.972Z,98780.59
2023-03-06T20:45:15.620Z,98759.56
2023-03-06T20:50:17.421Z,98795.44
2023-03-06T20:55:19.121Z,98817.41
2023-03-06T21:00:21.347Z,98782.66
2023-03-06T21:05:22.972Z,98776.72
2023-03-06T21:10:24.605Z,98785.09
2023-03-06T21:15:29.984Z,98789.47
2023-03-06T21:20:31.778Z,98747.56
2023-03-06T21:25:34.081Z,98736.53
2023-03-06T21:30:36.056Z,98760.06
2023-03-06T21:35:41.681Z,98768.25
2023-03-06T21:40:45.531Z,98785.72
2023-03-06T21:45:48.587Z,98759.38
2023-03-06T21:50:50.280Z,98742.84
2023-03-06T21:55:51.901Z,98720.06
2023-03-06T22:00:53.662Z,98748.34
2023-03-06T22:05:56.605Z,98756.22
2023-03-06T22:10:58.273Z,98759.66
2023-03-06T22:15:59.983Z,98714.41
2023-03-06T22:21:07.150Z,98768.16
2023-03-06T22:26:12.719Z,98722.97
2023-03-06T22:31:17.250Z,98738.38
2023-03-06T22:36:21.007Z,98720.25
2023-03-06T22:41:23.469Z,98756.78
2023-03-06T22:46:26.201Z,98770.84
2023-03-06T22:51:28.889Z,98744.28
2023-03-06T22:56:31.319Z,98685.16
2023-03-06T23:01:34.682Z,98705.38
2023-03-06T23:06:39.641Z,98733.41
2023-03-06T23:11:41.934Z,98775.03
2023-03-06T23:16:44.787Z,98684.63
2023-03-06T23:21:46.388Z,98699.50
2023-03-06T23:26:47.987Z,98691.06
2023-03-06T23:31:49.652Z,98681.84
2023-03-06T23:36:51.274Z,98643.94
2023-03-06T23:41:52.926Z,98670.28
2023-03-06T23:46:54.761Z,98630.47
2023-03-06T23:51:56.390Z,98684.34
2023-03-06T23:56:58.146Z,98674.81
